createdAt,value
2023-03-30T00:00:18.930Z,100.00
2023-03-30T00:02:51.219Z,100.00
2023-03-30T00:05:20.631Z,100.00
2023-03-30T00:07:49.114Z,100.00
2023-03-30T00:10:20.230Z,100.00
2023-03-30T00:12:50.861Z,100.00
2023-03-30T00:15:21.878Z,100.00
2023-03-30T00:17:55.252Z,100.00
2023-03-30T00:20:24.250Z,100.00
2023-03-30T00:22:52.781Z,100.00
2023-03-30T00:25:23.477Z,100.00
2023-03-30T00:27:51.882Z,100.00
2023-03-30T00:30:20.865Z,100.00
2023-03-30T00:32:49.340Z,100.00
2023-03-30T00:35:19.910Z,100.00
2023-03-30T00:37:49.874Z,100.00
2023-03-30T00:40:20.482Z,100.00
2023-03-30T00:42:49.697Z,100.00
2023-03-30T00:45:21.611Z,100.00
2023-03-30T00:47:54.055Z,100.00
2023-03-30T00:50:26.566Z,100.00
2023-03-30T00:52:56.668Z,100.00
2023-03-30T00:55:26.685Z,100.00
2023-03-30T00:57:56.669Z,100.00
2023-03-30T01:00:25.448Z,100.00
2023-03-30T01:02:59.140Z,100.00
2023-03-30T01:05:29.862Z,100.00
2023-03-30T01:07:59.253Z,100.00
2023-03-30T01:10:28.186Z,100.00
2023-03-30T01:12:56.650Z,100.00
2023-03-30T01:15:25.734Z,100.00
2023-03-30T01:18:09.029Z,100.00
2023-03-30T01:21:17.721Z,100.00
2023-03-30T01:24:17.578Z,100.00
2023-03-30T01:26:57.450Z,100.00
2023-03-30T01:29:34.462Z,100.00
2023-03-30T01:32:26.652Z,100.00
2023-03-30T01:35:19.364Z,100.00
2023-03-30T01:38:08.720Z,100.00
2023-03-30T01:40:42.095Z,100.00
2023-03-30T01:43:16.382Z,100.00
2023-03-30T01:45:47.595Z,100.00
2023-03-30T01:48:19.744Z,100.00
2023-03-30T01:50:50.819Z,100.00
2023-03-30T01:53:24.944Z,100.00
2023-03-30T01:55:58.489Z,100.00
2023-03-30T01:58:30.149Z,100.00
2023-03-30T02:00:59.215Z,100.00
2023-03-30T02:03:30.624Z,100.00
2023-03-30T02:06:20.887Z,100.00
2023-03-30T02:08:50.990Z,100.00
2023-03-30T02:11:20.922Z,100.00
2023-03-30T02:13:58.794Z,100.00
2023-03-30T02:16:32.359Z,100.00
2023-03-30T02:19:01.039Z,100.00
2023-03-30T02:21:30.243Z,100.00
2023-03-30T02:23:59.556Z,100.00
2023-03-30T02:26:32.963Z,100.00
2023-03-30T02:29:01.629Z,100.00
2023-03-30T02:31:30.752Z,100.00
2023-03-30T02:34:14.975Z,100.00
2023-03-30T02:37:12.074Z,100.00
2023-03-30T02:39:49.309Z,100.00
2023-03-30T02:42:41.085Z,100.00
2023-03-30T02:45:21.049Z,100.00
2023-03-30T02:48:08.985Z,100.00
2023-03-30T02:50:44.622Z,100.00
2023-03-30T02:53:17.596Z,100.00
2023-03-30T02:55:52.727Z,100.00
2023-03-30T02:58:30.846Z,100.00
2023-03-30T03:01:04.478Z,100.00
2023-03-30T03:03:37.548Z,100.00
2023-03-30T03:06:09.641Z,100.00
2023-03-30T03:08:40.066Z,100.00
2023-03-30T03:11:08.975Z,100.00
2023-03-30T03:13:39.274Z,100.00
2023-03-30T03:16:11.215Z,100.00
2023-03-30T03:18:42.031Z,100.00
2023-03-30T03:21:11.707Z,100.00
2023-03-30T03:23:40.746Z,100.00
2023-03-30T03:26:09.825Z,100.00
2023-03-30T03:28:39.682Z,100.00
2023-03-30T03:31:11.186Z,100.00
2023-03-30T03:33:39.914Z,100.00
2023-03-30T03:36:09.565Z,100.00
2023-03-30T03:38:38.184Z,100.00
2023-03-30T03:41:07.071Z,100.00
2023-03-30T03:43:35.516Z,100.00
2023-03-30T03:46:05.525Z,100.00
2023-03-30T03:48:34.918Z,100.00
2023-03-30T03:51:04.212Z,100.00
2023-03-30T03:53:36.111Z,100.00
2023-03-30T03:56:05.011Z,100.00
2023-03-30T03:58:33.618Z,100.00
2023-03-30T04:01:03.447Z,100.00
2023-03-30T04:03:33.930Z,100.00
2023-03-30T04:06:03.015Z,100.00
2023-03-30T04:08:31.555Z,100.00
2023-03-30T04:11:08.220Z,100.00
2023-03-30T04:13:36.914Z,100.00
2023-03-30T04:16:06.303Z,100.00
2023-03-30T04:18:36.921Z,100.00
2023-03-30T04:21:07.783Z,100.00
2023-03-30T04:23:36.808Z,100.00
2023-03-30T04:26:07.585Z,100.00
2023-03-30T04:28:36.910Z,100.00
2023-03-30T04:31:10.730Z,100.00
2023-03-30T04:33:47.415Z,100.00
2023-03-30T04:36:19.215Z,100.00
2023-03-30T04:38:58.516Z,100.00
2023-03-30T04:41:33.598Z,100.00
2023-03-30T04:44:04.027Z,100.00
2023-03-30T04:46:32.960Z,100.00
2023-03-30T04:49:03.061Z,100.00
2023-03-30T04:51:32.055Z,100.00
2023-03-30T04:54:00.558Z,100.00
2023-03-30T04:56:31.610Z,100.00
2023-03-30T04:59:00.288Z,100.00
2023-03-30T05:01:29.046Z,100.00
2023-03-30T05:03:57.971Z,100.00
2023-03-30T05:06:29.906Z,100.00
2023-03-30T05:08:58.429Z,100.00
2023-03-30T05:11:26.924Z,100.00
2023-03-30T05:13:55.701Z,100.00
2023-03-30T05:16:24.435Z,100.00
2023-03-30T05:18:53.100Z,100.00
2023-03-30T05:21:21.512Z,100.00
2023-03-30T05:23:51.686Z,100.00
2023-03-30T05:26:20.373Z,100.00
2023-03-30T05:28:48.970Z,100.00
2023-03-30T05:31:17.633Z,100.00
2023-03-30T05:33:46.773Z,100.00
2023-03-30T05:36:16.026Z,100.00
2023-03-30T05:38:44.622Z,100.00
2023-03-30T05:41:14.933Z,100.00
2023-03-30T05:43:43.456Z,100.00
2023-03-30T05:46:12.421Z,100.00
2023-03-30T05:48:41.224Z,100.00
2023-03-30T05:51:09.545Z,100.00
2023-03-30T05:53:39.533Z,100.00
2023-03-30T05:56:08.638Z,100.00
2023-03-30T05:58:39.125Z,100.00
2023-03-30T06:01:09.726Z,100.00
2023-03-30T06:03:39.199Z,100.00
2023-03-30T06:06:08.785Z,100.00
2023-03-30T06:08:37.362Z,100.00
2023-03-30T06:11:07.064Z,100.00
2023-03-30T06:13:35.877Z,100.00
2023-03-30T06:16:06.361Z,100.00
2023-03-30T06:18:35.349Z,100.00
2023-03-30T06:21:07.508Z,100.00
2023-03-30T06:23:37.322Z,100.00
2023-03-30T06:26:07.909Z,100.00
2023-03-30T06:28:38.419Z,100.00
2023-03-30T06:31:12.400Z,100.00
2023-03-30T06:33:43.943Z,100.00
2023-03-30T06:36:13.690Z,100.00
2023-03-30T06:38:43.948Z,100.00
2023-03-30T06:41:14.175Z,100.00
2023-03-30T06:43:43.353Z,100.00
2023-03-30T06:46:14.026Z,100.00
2023-03-30T06:48:42.735Z,100.00
2023-03-30T06:51:13.441Z,100.00
2023-03-30T06:53:42.206Z,100.00
2023-03-30T06:56:11.784Z,100.00
2023-03-30T06:58:43.711Z,100.00
2023-03-30T07:01:14.879Z,100.00
2023-03-30T07:03:43.785Z,100.00
2023-03-30T07:06:12.855Z,100.00
2023-03-30T07:08:43.747Z,100.00
2023-03-30T07:11:12.322Z,100.00
2023-03-30T07:13:41.496Z,100.00
2023-03-30T07:16:10.591Z,100.00
2023-03-30T07:18:40.882Z,100.00
2023-03-30T07:21:09.630Z,100.00
2023-03-30T07:23:40.679Z,100.00
2023-03-30T07:26:09.203Z,100.00
2023-03-30T07:28:38.788Z,100.00
2023-03-30T07:31:08.167Z,100.00
2023-03-30T07:33:42.953Z,100.00
2023-03-30T07:36:14.607Z,100.00
2023-03-30T07:38:43.208Z,100.00
2023-03-30T07:41:13.624Z,100.00
2023-03-30T07:43:42.657Z,100.00
2023-03-30T07:46:12.587Z,100.00
2023-03-30T07:48:42.577Z,100.00
2023-03-30T07:51:12.604Z,100.00
2023-03-30T07:53:41.253Z,100.00
2023-03-30T07:56:10.078Z,100.00
2023-03-30T07:59:05.647Z,100.00
2023-03-30T08:01:34.839Z,100.00
2023-03-30T08:04:05.261Z,100.00
2023-03-30T08:06:34.280Z,100.00
2023-03-30T08:09:03.271Z,100.00
2023-03-30T08:11:33.280Z,100.00
2023-03-30T08:14:01.794Z,100.00
2023-03-30T08:16:30.615Z,100.00
2023-03-30T08:18:59.697Z,100.00
2023-03-30T08:21:30.060Z,100.00
2023-03-30T08:23:59.490Z,100.00
2023-03-30T08:26:28.541Z,100.00
2023-03-30T08:28:57.201Z,100.00
2023-03-30T08:31:26.360Z,100.00
2023-03-30T08:33:54.999Z,100.00
2023-03-30T08:36:25.908Z,100.00
2023-03-30T08:38:57.538Z,100.00
2023-03-30T08:41:47.578Z,100.00
2023-03-30T08:44:22.431Z,100.00
2023-03-30T08:46:51.333Z,100.00
2023-03-30T08:49:21.561Z,100.00
2023-03-30T08:51:50.921Z,100.00
2023-03-30T08:54:22.628Z,100.00
2023-03-30T08:56:59.385Z,100.00
2023-03-30T08:59:36.398Z,100.00
2023-03-30T09:02:12.866Z,100.00
2023-03-30T09:04:57.886Z,100.00
2023-03-30T09:07:27.977Z,100.00
2023-03-30T09:09:58.844Z,100.00
2023-03-30T09:12:34.945Z,100.00
2023-03-30T09:15:07.571Z,100.00
2023-03-30T09:17:41.849Z,100.00
2023-03-30T09:20:14.831Z,100.00
2023-03-30T09:22:45.368Z,100.00
2023-03-30T09:25:17.392Z,100.00
2023-03-30T09:27:52.908Z,100.00
2023-03-30T09:30:24.955Z,100.00
2023-03-30T09:33:01.087Z,100.00
2023-03-30T09:35:39.378Z,100.00
2023-03-30T09:38:12.571Z,100.00
2023-03-30T09:40:53.210Z,100.00
2023-03-30T09:43:29.449Z,100.00
2023-03-30T09:46:02.873Z,100.00
2023-03-30T09:48:39.698Z,100.00
2023-03-30T09:51:16.960Z,100.00
2023-03-30T09:53:50.017Z,100.00
2023-03-30T09:56:28.994Z,100.00
2023-03-30T09:58:58.252Z,100.00
2023-03-30T10:01:38.833Z,100.00
2023-03-30T10:04:10.136Z,100.00
2023-03-30T10:06:40.984Z,100.00
2023-03-30T10:09:12.749Z,100.00
2023-03-30T10:11:45.342Z,100.00
2023-03-30T10:14:33.153Z,100.00
2023-03-30T10:17:02.343Z,100.00
2023-03-30T10:19:31.320Z,100.00
2023-03-30T10:22:04.486Z,100.00
2023-03-30T10:24:38.853Z,100.00
2023-03-30T10:27:14.593Z,100.00
2023-03-30T10:29:46.971Z,100.00
2023-03-30T10:32:17.709Z,100.00
2023-03-30T10:34:48.766Z,100.00
2023-03-30T10:37:20.240Z,100.00
2023-03-30T10:39:50.099Z,100.00
2023-03-30T10:42:22.903Z,100.00
2023-03-30T10:44:53.574Z,100.00
2023-03-30T10:47:39.208Z,100.00
2023-03-30T10:50:16.935Z,100.00
2023-03-30T10:52:59.438Z,100.00
2023-03-30T10:55:33.908Z,97.45
2023-03-30T10:58:30.156Z,92.21
2023-03-30T11:01:09.028Z,85.24
2023-03-30T11:03:39.079Z,78.20
2023-03-30T11:06:12.723Z,76.79
2023-03-30T11:08:43.854Z,76.48
2023-03-30T11:11:16.420Z,75.81
2023-03-30T11:13:49.597Z,74.23
2023-03-30T11:16:21.572Z,71.96
2023-03-30T11:18:54.803Z,72.85
2023-03-30T11:21:28.274Z,72.36
2023-03-30T11:24:00.241Z,70.06
2023-03-30T11:26:37.761Z,69.75
2023-03-30T11:29:24.440Z,68.40
2023-03-30T11:31:59.501Z,66.16
2023-03-30T11:34:32.896Z,64.32
2023-03-30T11:37:06.786Z,62.33
2023-03-30T11:39:36.962Z,65.24
2023-03-30T11:42:16.392Z,65.93
2023-03-30T11:44:46.774Z,69.10
2023-03-30T11:47:37.728Z,68.24
2023-03-30T11:50:23.432Z,70.10
2023-03-30T11:52:59.874Z,72.23
2023-03-30T11:55:52.923Z,71.56
2023-03-30T11:58:29.143Z,73.06
2023-03-30T12:01:27.495Z,71.01
2023-03-30T12:03:58.974Z,69.26
2023-03-30T12:06:32.820Z,66.80
2023-03-30T12:09:27.113Z,64.89
2023-03-30T12:11:59.100Z,65.42
2023-03-30T12:14:37.914Z,61.38
2023-03-30T12:17:15.580Z,57.83
2023-03-30T12:19:56.124Z,56.13
2023-03-30T12:22:30.984Z,59.94
2023-03-30T12:25:04.457Z,59.85
2023-03-30T12:27:37.649Z,59.17
2023-03-30T12:30:21.478Z,61.54
2023-03-30T12:33:02.103Z,62.56
2023-03-30T12:36:01.159Z,63.27
2023-03-30T12:38:39.149Z,62.89
2023-03-30T12:41:21.091Z,63.70
2023-03-30T12:44:09.549Z,64.19
2023-03-30T12:46:43.440Z,64.78
2023-03-30T12:49:21.888Z,65.35
2023-03-30T12:51:59.134Z,62.39
2023-03-30T12:54:53.817Z,63.40
2023-03-30T12:57:32.970Z,64.71
2023-03-30T13:00:27.830Z,64.45
2023-03-30T13:03:09.541Z,63.87
2023-03-30T13:05:43.774Z,65.66
2023-03-30T13:08:22.624Z,67.36
2023-03-30T13:10:51.556Z,66.47
2023-03-30T13:13:24.597Z,66.31
2023-03-30T13:15:55.111Z,68.42
2023-03-30T13:18:33.975Z,66.25
2023-03-30T13:21:17.940Z,67.07
2023-03-30T13:24:00.952Z,67.33
2023-03-30T13:26:34.890Z,67.48
2023-03-30T13:29:11.099Z,67.20
2023-03-30T13:31:48.545Z,65.72
2023-03-30T13:34:30.913Z,67.17
2023-03-30T13:37:08.700Z,67.70
2023-03-30T13:39:42.486Z,68.71
2023-03-30T13:42:25.452Z,69.84
2023-03-30T13:45:00.259Z,70.75
2023-03-30T13:47:41.434Z,72.57
2023-03-30T13:50:18.928Z,73.31
2023-03-30T13:52:50.812Z,74.68
2023-03-30T13:55:22.824Z,75.62
2023-03-30T13:57:57.423Z,76.52
2023-03-30T14:00:40.028Z,75.86
2023-03-30T14:03:37.637Z,76.57
2023-03-30T14:06:09.215Z,77.00
2023-03-30T14:08:41.321Z,77.51
2023-03-30T14:11:15.744Z,77.69
2023-03-30T14:13:45.388Z,78.54
2023-03-30T14:16:22.616Z,78.49
2023-03-30T14:18:51.746Z,77.13
2023-03-30T14:21:22.104Z,75.52
2023-03-30T14:23:53.930Z,74.34
2023-03-30T14:26:27.363Z,75.25
2023-03-30T14:28:57.378Z,76.10
2023-03-30T14:31:27.522Z,76.50
2023-03-30T14:33:56.515Z,77.43
2023-03-30T14:36:25.759Z,76.57
2023-03-30T14:38:59.484Z,77.89
2023-03-30T14:41:29.947Z,79.89
2023-03-30T14:44:00.633Z,81.75
2023-03-30T14:46:32.867Z,82.27
2023-03-30T14:49:01.762Z,83.92
2023-03-30T14:51:40.695Z,84.74
2023-03-30T14:54:16.029Z,86.64
2023-03-30T14:56:49.030Z,88.47
2023-03-30T14:59:22.702Z,89.31
2023-03-30T15:01:51.998Z,90.45
2023-03-30T15:04:22.127Z,91.27
2023-03-30T15:06:52.798Z,92.96
2023-03-30T15:09:24.354Z,94.65
2023-03-30T15:11:56.403Z,95.63
2023-03-30T15:14:25.079Z,97.86
2023-03-30T15:16:54.943Z,98.47
2023-03-30T15:19:29.944Z,99.41
2023-03-30T15:22:01.273Z,100.00
2023-03-30T15:24:34.113Z,100.00
2023-03-30T15:27:05.584Z,100.00
2023-03-30T15:29:37.232Z,100.00
2023-03-30T15:32:09.591Z,100.00
2023-03-30T15:34:38.223Z,100.00
2023-03-30T15:37:22.403Z,100.00
2023-03-30T15:39:52.246Z,100.00
2023-03-30T15:42:26.246Z,100.00
2023-03-30T15:45:03.422Z,100.00
2023-03-30T15:47:32.532Z,100.00
2023-03-30T15:50:01.012Z,100.00
2023-03-30T15:52:34.965Z,100.00
2023-03-30T15:55:09.130Z,100.00
2023-03-30T15:57:38.614Z,100.00
2023-03-30T16:00:12.558Z,100.00
2023-03-30T16:02:42.538Z,100.00
2023-03-30T16:05:21.019Z,100.00
2023-03-30T16:07:50.030Z,100.00
2023-03-30T16:10:21.882Z,100.00
2023-03-30T16:12:50.609Z,100.00
2023-03-30T16:15:24.080Z,100.00
2023-03-30T16:17:54.725Z,100.00
2023-03-30T16:20:29.323Z,100.00
2023-03-30T16:22:58.189Z,100.00
2023-03-30T16:28:04.588Z,100.00
2023-03-30T16:30:35.585Z,100.00
2023-03-30T16:33:04.726Z,100.00
2023-03-30T16:35:33.425Z,100.00
2023-03-30T16:38:02.238Z,100.00
2023-03-30T16:40:35.352Z,100.00
2023-03-30T16:43:06.948Z,100.00
2023-03-30T16:45:39.692Z,100.00
2023-03-30T16:48:12.623Z,100.00
2023-03-30T16:50:42.538Z,100.00
2023-03-30T16:53:12.497Z,100.00
2023-03-30T16:55:45.604Z,100.00
2023-03-30T16:58:15.941Z,100.00
2023-03-30T17:00:47.057Z,100.00
2023-03-30T17:03:16.186Z,100.00
2023-03-30T17:05:49.702Z,100.00
2023-03-30T17:08:22.156Z,100.00
2023-03-30T17:10:54.053Z,100.00
2023-03-30T17:13:24.194Z,100.00
2023-03-30T17:15:52.944Z,100.00
2023-03-30T17:18:25.603Z,100.00
2023-03-30T17:20:55.333Z,100.00
2023-03-30T17:23:28.518Z,100.00
2023-03-30T17:26:00.501Z,100.00
2023-03-30T17:28:38.617Z,100.00
2023-03-30T17:31:11.119Z,100.00
2023-03-30T17:33:42.718Z,100.00
2023-03-30T17:36:14.214Z,100.00
2023-03-30T17:38:43.669Z,100.00
2023-03-30T17:41:14.908Z,100.00
2023-03-30T17:43:44.798Z,100.00
2023-03-30T17:46:14.329Z,100.00
2023-03-30T17:48:43.351Z,100.00
2023-03-30T17:51:14.866Z,100.00
2023-03-30T17:53:43.638Z,100.00
2023-03-30T17:56:14.584Z,100.00
2023-03-30T17:58:43.430Z,100.00
2023-03-30T18:01:14.053Z,100.00
2023-03-30T18:03:45.057Z,100.00
2023-03-30T18:06:14.141Z,100.00
2023-03-30T18:08:44.270Z,100.00
2023-03-30T18:11:16.091Z,100.00
2023-03-30T18:13:44.875Z,100.00
2023-03-30T18:16:18.143Z,100.00
2023-03-30T18:18:47.168Z,100.00
2023-03-30T18:21:15.643Z,100.00
2023-03-30T18:23:46.739Z,100.00
2023-03-30T18:26:16.759Z,100.00
2023-03-30T18:28:49.784Z,100.00
2023-03-30T18:31:18.402Z,100.00
2023-03-30T18:33:49.038Z,100.00
2023-03-30T18:36:25.321Z,100.00
2023-03-30T18:39:00.416Z,100.00
2023-03-30T18:41:32.817Z,100.00
2023-03-30T18:44:01.739Z,100.00
2023-03-30T18:46:31.319Z,100.00
2023-03-30T18:49:00.353Z,100.00
2023-03-30T18:51:32.003Z,100.00
2023-03-30T18:54:02.425Z,100.00
2023-03-30T18:56:33.906Z,100.00
2023-03-30T18:59:06.431Z,100.00
2023-03-30T19:01:34.987Z,100.00
2023-03-30T19:04:03.595Z,100.00
2023-03-30T19:06:33.004Z,100.00
2023-03-30T19:09:01.884Z,100.00
2023-03-30T19:11:30.304Z,100.00
2023-03-30T19:14:02.280Z,100.00
2023-03-30T19:16:31.536Z,100.00
2023-03-30T19:19:00.163Z,100.00
2023-03-30T19:21:28.888Z,100.00
2023-03-30T19:23:57.479Z,100.00
2023-03-30T19:26:27.549Z,100.00
2023-03-30T19:28:56.272Z,100.00
2023-03-30T19:31:26.087Z,100.00
2023-03-30T19:33:56.523Z,100.00
2023-03-30T19:36:25.320Z,100.00
2023-03-30T19:38:57.102Z,100.00
2023-03-30T19:41:28.875Z,100.00
2023-03-30T19:43:57.607Z,100.00
2023-03-30T19:46:27.876Z,100.00
2023-03-30T19:48:58.853Z,100.00
2023-03-30T19:51:33.900Z,100.00
2023-03-30T19:54:02.191Z,100.00
2023-03-30T19:56:32.358Z,100.00
2023-03-30T19:59:00.713Z,100.00
2023-03-30T20:01:33.404Z,100.00
2023-03-30T20:04:02.175Z,100.00
2023-03-30T20:06:32.445Z,100.00
2023-03-30T20:09:02.904Z,100.00
2023-03-30T20:11:32.016Z,100.00
2023-03-30T20:14:01.178Z,100.00
2023-03-30T20:16:35.301Z,100.00
2023-03-30T20:19:15.747Z,100.00
2023-03-30T20:21:47.862Z,100.00
2023-03-30T20:24:16.873Z,100.00
2023-03-30T20:26:45.853Z,100.00
2023-03-30T20:29:15.095Z,100.00
2023-03-30T20:31:47.426Z,100.00
2023-03-30T20:34:18.916Z,100.00
2023-03-30T20:36:50.191Z,100.00
2023-03-30T20:39:22.189Z,100.00
2023-03-30T20:41:54.308Z,100.00
2023-03-30T20:44:32.598Z,100.00
2023-03-30T20:47:05.208Z,100.00
2023-03-30T20:49:34.298Z,100.00
2023-03-30T20:52:03.256Z,100.00
2023-03-30T20:54:32.864Z,100.00
2023-03-30T20:57:01.988Z,100.00
2023-03-30T20:59:34.179Z,100.00
2023-03-30T21:02:06.724Z,100.00
2023-03-30T21:04:36.668Z,100.00
2023-03-30T21:07:05.265Z,100.00
2023-03-30T21:09:34.312Z,100.00
2023-03-30T21:12:03.433Z,100.00
2023-03-30T21:14:31.902Z,100.00
2023-03-30T21:17:00.749Z,100.00
2023-03-30T21:19:30.890Z,100.00
2023-03-30T21:22:00.475Z,100.00
2023-03-30T21:24:29.626Z,100.00
2023-03-30T21:26:58.352Z,100.00
2023-03-30T21:29:26.840Z,100.00
2023-03-30T21:31:55.492Z,100.00
2023-03-30T21:34:24.232Z,100.00
2023-03-30T21:36:54.645Z,100.00
2023-03-30T21:39:24.131Z,100.00
2023-03-30T21:41:54.626Z,100.00
2023-03-30T21:44:23.507Z,100.00
2023-03-30T21:46:51.972Z,100.00
2023-03-30T21:49:20.508Z,100.00
2023-03-30T21:51:49.625Z,100.00
2023-03-30T21:54:20.570Z,100.00
2023-03-30T21:56:49.291Z,100.00
2023-03-30T21:59:19.223Z,100.00
2023-03-30T22:01:48.025Z,100.00
2023-03-30T22:04:16.530Z,100.00
2023-03-30T22:06:46.942Z,100.00
2023-03-30T22:09:15.286Z,100.00
2023-03-30T22:11:45.234Z,100.00
2023-03-30T22:14:13.859Z,100.00
2023-03-30T22:16:43.278Z,100.00
2023-03-30T22:19:12.490Z,100.00
2023-03-30T22:21:43.057Z,100.00
2023-03-30T22:24:13.346Z,100.00
2023-03-30T22:26:42.107Z,100.00
2023-03-30T22:29:12.423Z,100.00
2023-03-30T22:31:46.960Z,100.00
2023-03-30T22:34:15.879Z,100.00
2023-03-30T22:36:44.918Z,100.00
2023-03-30T22:39:13.755Z,100.00
2023-03-30T22:41:42.550Z,100.00
2023-03-30T22:44:12.889Z,100.00
2023-03-30T22:46:42.010Z,100.00
2023-03-30T22:49:10.725Z,100.00
2023-03-30T22:51:39.515Z,100.00
2023-03-30T22:54:09.996Z,100.00
2023-03-30T22:56:38.514Z,100.00
2023-03-30T22:59:07.265Z,100.00
2023-03-30T23:01:37.453Z,100.00
2023-03-30T23:04:06.615Z,100.00
2023-03-30T23:06:36.602Z,100.00
2023-03-30T23:09:05.807Z,100.00
2023-03-30T23:11:34.864Z,100.00
2023-03-30T23:14:05.524Z,100.00
2023-03-30T23:16:36.173Z,100.00
2023-03-30T23:19:07.060Z,100.00
2023-03-30T23:21:36.133Z,100.00
2023-03-30T23:24:06.648Z,100.00
2023-03-30T23:26:35.926Z,100.00
2023-03-30T23:29:05.798Z,100.00
2023-03-30T23:31:35.769Z,100.00
2023-03-30T23:34:06.035Z,100.00
2023-03-30T23:36:35.367Z,100.00
2023-03-30T23:39:05.992Z,100.00
2023-03-30T23:41:35.049Z,100.00
2023-03-30T23:44:03.733Z,100.00
2023-03-30T23:46:38.951Z,100.00
2023-03-30T23:49:08.889Z,100.00
2023-03-30T23:51:37.384Z,100.00
2023-03-30T23:54:09.140Z,100.00
2023-03-30T23:56:42.218Z,100.00
2023-03-30T23:59:11.489Z,100.00
